Marina Del Rey, California
Current Conditions -  °F | °C
As of 8:51 PM on Saturday 22 Nov 2014 (Local Time) from KSMO Reporting Station
Clear Clear  
Wind Chill: 61°   Ceiling: Unl
Heat Index: 61°   Visibility: 10mi
Dew Point: 53°   Wind: 3mph
Humidity: 75%   Direction: 60°ENE
Pressure: 30.04"   Gusts: NA
Location:  33.98°N, 118.45°W
Report Text: KSMO 230451Z AUTO 06003KT 10SM CLR 16/12 A3004 RMK AO2 SLP172 T01610117 $
Loading
Personal Weather Stations






























Interactive Weather Map New forecast layout! Learn more

10-Day Weather Forecast

Advertisements
Track Severe Weather on mobile